Time;durP1;ratioP1;P1;durP2;ratioP2;P2;SDS_P1;SDS_P2;PMS_P1;PMS_P2;Temp;Humidity;BMP_temperature;BMP_pressure;BME280_temperature;BME280_humidity;BME280_pressure;Samples;Min_cycle;Max_cycle;Signal;HPM_P1;HPM_P2
2024/02/18 00:01:40;;;;;;;15.85;9.88;;;;;;;;;;5040563;28;20495;-81
2024/02/18 00:04:07;;;;;;;14.23;10.40;;;;;;;;;;5040541;28;20136;-81
2024/02/18 00:06:34;;;;;;;15.02;10.40;;;;;;;;;;5021061;28;20490;-81
2024/02/18 00:09:01;;;;;;;12.75;9.25;;;;;;;;;;5037046;28;20053;-81
2024/02/18 00:11:28;;;;;;;15.70;10.55;;;;;;;;;;5058683;28;20149;-81
2024/02/18 00:13:55;;;;;;;14.02;10.60;;;;;;;;;;5024497;28;20053;-81
2024/02/18 00:16:22;;;;;;;15.50;10.48;;;;;;;;;;5038791;28;20049;-81
2024/02/18 00:18:49;;;;;;;15.70;9.55;;;;;;;;;;5024203;28;20101;-81
2024/02/18 00:21:17;;;;;;;13.68;9.50;;;;;;;;;;5040454;28;20053;-81
2024/02/18 00:23:44;;;;;;;12.98;9.70;;;;;;;;;;5040543;28;20061;-81
2024/02/18 00:26:12;;;;;;;13.43;9.93;;;;;;;;;;5041186;28;20041;-81
2024/02/18 00:28:39;;;;;;;17.08;10.38;;;;;;;;;;5039908;28;20076;-80
2024/02/18 00:31:06;;;;;;;15.10;10.32;;;;;;;;;;5040682;28;20053;-81
2024/02/18 00:33:32;;;;;;;16.60;10.27;;;;;;;;;;5023889;28;20064;-80
2024/02/18 00:35:59;;;;;;;15.70;10.32;;;;;;;;;;5041086;28;20045;-80
2024/02/18 00:38:27;;;;;;;14.68;9.48;;;;;;;;;;5042035;28;20049;-80
2024/02/18 00:40:54;;;;;;;15.63;9.43;;;;;;;;;;5026617;28;20064;-80
2024/02/18 00:43:21;;;;;;;15.65;9.68;;;;;;;;;;5058553;28;20136;-79
2024/02/18 00:45:48;;;;;;;15.30;9.32;;;;;;;;;;5039057;28;20076;-80
2024/02/18 00:48:15;;;;;;;13.63;9.57;;;;;;;;;;5041688;28;20088;-81
2024/02/18 00:50:42;;;;;;;11.52;8.68;;;;;;;;;;5042773;28;20053;-80
2024/02/18 00:53:09;;;;;;;13.98;9.10;;;;;;;;;;5047020;28;20061;-80
2024/02/18 00:55:35;;;;;;;11.75;9.10;;;;;;;;;;5047264;28;20053;-80
2024/02/18 00:58:02;;;;;;;13.45;9.63;;;;;;;;;;5047648;28;20040;-80
2024/02/18 01:00:29;;;;;;;11.57;9.13;;;;;;;;;;5055470;28;20056;-80
2024/02/18 01:02:56;;;;;;;13.32;9.23;;;;;;;;;;5020799;28;20045;-80
2024/02/18 01:05:23;;;;;;;12.45;8.50;;;;;;;;;;5034464;28;20049;-80
2024/02/18 01:07:51;;;;;;;14.13;8.95;;;;;;;;;;5037337;28;20061;-79
2024/02/18 01:10:17;;;;;;;14.27;9.27;;;;;;;;;;5021303;28;20098;-79
2024/02/18 01:12:44;;;;;;;17.08;9.48;;;;;;;;;;5038447;28;20059;-80
2024/02/18 01:15:11;;;;;;;10.93;8.77;;;;;;;;;;5022180;28;20057;-80
2024/02/18 01:17:37;;;;;;;15.20;8.50;;;;;;;;;;5024432;28;20048;-80
2024/02/18 01:20:05;;;;;;;11.90;8.35;;;;;;;;;;5024038;28;20064;-79
2024/02/18 01:22:33;;;;;;;12.82;9.15;;;;;;;;;;5023591;28;20052;-80
2024/02/18 01:24:59;;;;;;;12.50;8.30;;;;;;;;;;5058569;28;20102;-80
2024/02/18 01:27:26;;;;;;;13.38;8.77;;;;;;;;;;5043078;28;20576;-79
2024/02/18 01:29:53;;;;;;;10.80;7.80;;;;;;;;;;5037965;28;20067;-79
2024/02/18 01:32:20;;;;;;;13.82;8.70;;;;;;;;;;5038520;28;20049;-79
2024/02/18 01:34:46;;;;;;;11.77;8.45;;;;;;;;;;5038321;28;20419;-79
2024/02/18 01:37:13;;;;;;;11.35;8.23;;;;;;;;;;5039328;28;20072;-80
2024/02/18 01:39:40;;;;;;;14.40;8.95;;;;;;;;;;5057611;28;20503;-81
2024/02/18 01:42:09;;;;;;;14.38;9.45;;;;;;;;;;5041287;28;20049;-80
2024/02/18 01:44:36;;;;;;;12.18;8.77;;;;;;;;;;5040193;28;20102;-80
2024/02/18 01:47:04;;;;;;;12.40;9.23;;;;;;;;;;5040156;28;20061;-80
2024/02/18 01:49:33;;;;;;;14.10;9.80;;;;;;;;;;5023403;28;20096;-80
2024/02/18 01:52:00;;;;;;;14.10;9.20;;;;;;;;;;5039151;28;20049;-80
2024/02/18 01:54:33;;;;;;;13.02;9.73;;;;;;;;;;5019480;28;20045;-81
2024/02/18 01:57:03;;;;;;;12.32;9.38;;;;;;;;;;5021690;28;20080;-80
2024/02/18 01:59:30;;;;;;;11.93;9.32;;;;;;;;;;5024634;28;20423;-81
2024/02/18 02:01:57;;;;;;;11.80;9.07;;;;;;;;;;5024329;28;20049;-80
2024/02/18 02:04:23;;;;;;;14.98;9.45;;;;;;;;;;5023997;28;20083;-80
2024/02/18 02:06:51;;;;;;;13.80;9.68;;;;;;;;;;5025353;28;20087;-80
2024/02/18 02:09:17;;;;;;;17.92;9.80;;;;;;;;;;5041319;28;20056;-80
2024/02/18 02:11:44;;;;;;;13.90;9.55;;;;;;;;;;5025095;28;20055;-80
2024/02/18 02:14:12;;;;;;;14.20;9.10;;;;;;;;;;5040126;28;20143;-80
2024/02/18 02:16:39;;;;;;;16.90;10.25;;;;;;;;;;5026326;28;20049;-80
2024/02/18 02:19:05;;;;;;;11.77;8.43;;;;;;;;;;5042357;28;20511;-80
2024/02/18 02:21:32;;;;;;;14.88;9.32;;;;;;;;;;5039667;28;20053;-80
2024/02/18 02:23:59;;;;;;;14.18;9.48;;;;;;;;;;5038208;28;20091;-79
2024/02/18 02:26:26;;;;;;;13.25;9.05;;;;;;;;;;5038766;28;20045;-79
2024/02/18 02:29:04;;;;;;;17.27;9.35;;;;;;;;;;5056227;28;20045;-79
2024/02/18 02:31:31;;;;;;;14.93;9.13;;;;;;;;;;5039094;28;20053;-81
2024/02/18 02:33:57;;;;;;;13.63;9.25;;;;;;;;;;5029266;28;20057;-80
2024/02/18 02:36:24;;;;;;;15.48;9.82;;;;;;;;;;5045940;28;20057;-80
2024/02/18 02:38:51;;;;;;;13.45;9.27;;;;;;;;;;5044814;28;20052;-80
2024/02/18 02:41:21;;;;;;;15.35;10.52;;;;;;;;;;5058915;28;20060;-80
2024/02/18 02:43:48;;;;;;;13.02;9.10;;;;;;;;;;5039725;28;20079;-80
2024/02/18 02:46:15;;;;;;;16.10;9.80;;;;;;;;;;5060836;28;20057;-80
2024/02/18 02:48:41;;;;;;;15.35;10.15;;;;;;;;;;5062015;28;20048;-80
2024/02/18 02:51:08;;;;;;;13.30;9.70;;;;;;;;;;5057282;28;20037;-80
2024/02/18 02:53:35;;;;;;;15.23;10.15;;;;;;;;;;5075430;28;20049;-80
2024/02/18 02:56:04;;;;;;;19.13;10.07;;;;;;;;;;5069118;28;20052;-80
2024/02/18 02:58:31;;;;;;;16.02;10.18;;;;;;;;;;5051611;28;20044;-80
2024/02/18 03:00:58;;;;;;;11.85;9.35;;;;;;;;;;5051728;28;20063;-80
2024/02/18 03:03:24;;;;;;;18.40;11.43;;;;;;;;;;5050557;28;20057;-80
2024/02/18 03:05:51;;;;;;;13.15;9.77;;;;;;;;;;5042971;28;20053;-81
2024/02/18 03:08:18;;;;;;;19.63;10.63;;;;;;;;;;5033137;28;20114;-80
2024/02/18 03:10:44;;;;;;;14.63;9.77;;;;;;;;;;5017619;28;20056;-80
2024/02/18 03:13:11;;;;;;;12.30;9.95;;;;;;;;;;5034469;28;20110;-80
2024/02/18 03:15:38;;;;;;;14.70;10.98;;;;;;;;;;5036531;28;20061;-80
2024/02/18 03:18:04;;;;;;;15.65;10.20;;;;;;;;;;5019402;28;20495;-79
2024/02/18 03:20:34;;;;;;;14.02;10.13;;;;;;;;;;5037279;28;20049;-79
2024/02/18 03:23:01;;;;;;;15.23;10.60;;;;;;;;;;5018018;28;20045;-80
2024/02/18 03:25:28;;;;;;;13.15;10.00;;;;;;;;;;5017223;28;20489;-80
2024/02/18 03:27:54;;;;;;;14.95;10.35;;;;;;;;;;5050931;28;20512;-80
2024/02/18 03:30:21;;;;;;;19.55;11.15;;;;;;;;;;5017290;28;20053;-80
2024/02/18 03:32:48;;;;;;;15.52;10.98;;;;;;;;;;5034067;28;20084;-80
2024/02/18 03:35:15;;;;;;;16.02;11.15;;;;;;;;;;5049569;28;20503;-79
2024/02/18 03:37:41;;;;;;;16.27;10.63;;;;;;;;;;5033919;28;20081;-81
2024/02/18 03:40:08;;;;;;;14.07;10.55;;;;;;;;;;5018950;28;20458;-80
2024/02/18 03:42:35;;;;;;;12.75;9.18;;;;;;;;;;5019600;28;20075;-80
2024/02/18 03:45:02;;;;;;;16.70;10.88;;;;;;;;;;5036941;28;20408;-80
2024/02/18 03:47:29;;;;;;;15.50;10.45;;;;;;;;;;5019446;28;20515;-80
2024/02/18 03:49:55;;;;;;;16.42;10.73;;;;;;;;;;5054176;28;20075;-80
2024/02/18 03:52:23;;;;;;;14.20;10.35;;;;;;;;;;5037214;28;20061;-80
2024/02/18 03:54:49;;;;;;;15.93;10.50;;;;;;;;;;5055929;28;20045;-79
2024/02/18 03:57:16;;;;;;;14.18;10.35;;;;;;;;;;5050987;28;20060;-79
2024/02/18 03:59:43;;;;;;;14.75;10.10;;;;;;;;;;5053466;28;20033;-79
2024/02/18 04:02:09;;;;;;;17.27;11.18;;;;;;;;;;5061595;28;20040;-80
2024/02/18 04:04:36;;;;;;;17.10;11.20;;;;;;;;;;5062541;28;20037;-79
2024/02/18 04:07:04;;;;;;;16.48;10.40;;;;;;;;;;5075715;28;20045;-79
2024/02/18 04:09:31;;;;;;;16.20;10.25;;;;;;;;;;5039909;28;20064;-78
2024/02/18 04:11:58;;;;;;;18.08;11.07;;;;;;;;;;5075461;28;20081;-78
2024/02/18 04:14:25;;;;;;;18.25;10.90;;;;;;;;;;5058414;28;20033;-77
2024/02/18 04:16:53;;;;;;;16.77;11.82;;;;;;;;;;5058194;28;20094;-77
2024/02/18 04:19:21;;;;;;;18.50;11.35;;;;;;;;;;5060871;28;20056;-77
2024/02/18 04:21:48;;;;;;;17.85;10.82;;;;;;;;;;5033264;28;20493;-78
2024/02/18 04:24:14;;;;;;;13.85;10.32;;;;;;;;;;5038835;28;20057;-78
2024/02/18 04:26:42;;;;;;;18.33;11.20;;;;;;;;;;5033044;28;20049;-78
2024/02/18 04:29:08;;;;;;;15.43;11.77;;;;;;;;;;5032619;28;20465;-78
2024/02/18 04:31:35;;;;;;;18.15;11.27;;;;;;;;;;5036754;28;21368;-78
2024/02/18 04:34:03;;;;;;;19.63;10.88;;;;;;;;;;5036727;28;20055;-78
2024/02/18 04:36:30;;;;;;;17.42;10.48;;;;;;;;;;5036840;28;20494;-77
2024/02/18 04:38:57;;;;;;;19.17;10.57;;;;;;;;;;5054918;28;20068;-78
2024/02/18 04:41:25;;;;;;;15.57;10.73;;;;;;;;;;5025118;28;20104;-78
2024/02/18 04:43:52;;;;;;;16.00;10.60;;;;;;;;;;5034497;28;20046;-78
2024/02/18 04:46:18;;;;;;;16.25;10.70;;;;;;;;;;5054830;28;20501;-78
2024/02/18 04:48:45;;;;;;;16.08;10.52;;;;;;;;;;5054481;28;20059;-78
2024/02/18 04:51:12;;;;;;;18.63;11.45;;;;;;;;;;5038090;28;20127;-79
2024/02/18 04:53:39;;;;;;;15.00;10.77;;;;;;;;;;5049994;28;20059;-83
2024/02/18 04:56:06;;;;;;;14.82;9.50;;;;;;;;;;5036855;28;20044;-81
2024/02/18 04:58:33;;;;;;;13.30;9.05;;;;;;;;;;5054530;28;20049;-81
2024/02/18 05:00:59;;;;;;;13.55;10.40;;;;;;;;;;5020506;28;20080;-81
2024/02/18 05:03:26;;;;;;;14.90;9.90;;;;;;;;;;5054164;28;20087;-81
2024/02/18 05:05:53;;;;;;;12.80;9.70;;;;;;;;;;5054764;28;20088;-80
2024/02/18 05:08:20;;;;;;;14.63;9.50;;;;;;;;;;5029206;28;20068;-80
2024/02/18 05:10:46;;;;;;;14.38;9.30;;;;;;;;;;5037675;28;20510;-80
2024/02/18 05:13:13;;;;;;;13.23;8.80;;;;;;;;;;5054399;28;20053;-80
2024/02/18 05:15:40;;;;;;;14.82;8.93;;;;;;;;;;5071737;28;20056;-79
2024/02/18 05:18:07;;;;;;;13.00;8.65;;;;;;;;;;5046091;28;20056;-79
2024/02/18 05:20:33;;;;;;;12.40;8.98;;;;;;;;;;5052060;28;20060;-80
2024/02/18 05:23:01;;;;;;;13.27;9.13;;;;;;;;;;5027859;28;20048;-80
2024/02/18 05:25:28;;;;;;;14.93;8.98;;;;;;;;;;5037915;28;20084;-80
2024/02/18 05:27:54;;;;;;;12.60;9.25;;;;;;;;;;5053899;28;20072;-80
2024/02/18 05:30:21;;;;;;;14.70;10.05;;;;;;;;;;5019907;28;20052;-80
2024/02/18 05:32:48;;;;;;;16.40;10.68;;;;;;;;;;5052378;28;20123;-80
2024/02/18 05:35:15;;;;;;;13.45;9.60;;;;;;;;;;5052855;28;20055;-80
2024/02/18 05:37:41;;;;;;;11.98;8.55;;;;;;;;;;5036290;28;20041;-80
2024/02/18 05:40:08;;;;;;;13.82;10.15;;;;;;;;;;5036784;28;20115;-80
2024/02/18 05:42:35;;;;;;;14.00;9.70;;;;;;;;;;5036727;28;20048;-80
2024/02/18 05:45:03;;;;;;;13.23;8.68;;;;;;;;;;5052250;28;20049;-80
2024/02/18 05:47:29;;;;;;;13.55;8.93;;;;;;;;;;5019256;28;20041;-80
2024/02/18 05:49:56;;;;;;;13.70;9.55;;;;;;;;;;5035242;28;20049;-80
2024/02/18 05:52:23;;;;;;;13.48;9.07;;;;;;;;;;5053346;28;20044;-80
2024/02/18 05:54:50;;;;;;;14.27;9.02;;;;;;;;;;5035672;28;20527;-81
2024/02/18 05:57:16;;;;;;;13.00;8.98;;;;;;;;;;5049179;28;20118;-81
2024/02/18 05:59:44;;;;;;;13.30;9.90;;;;;;;;;;5035937;28;20126;-80
2024/02/18 06:02:10;;;;;;;14.25;9.65;;;;;;;;;;5018900;28;20041;-81
2024/02/18 06:04:37;;;;;;;11.90;9.23;;;;;;;;;;5054180;28;20461;-81
2024/02/18 06:07:04;;;;;;;12.90;9.38;;;;;;;;;;5036137;28;20561;-81
2024/02/18 06:09:31;;;;;;;13.45;8.93;;;;;;;;;;5037072;28;20061;-80
2024/02/18 06:11:57;;;;;;;16.35;9.32;;;;;;;;;;5036606;28;20088;-79
2024/02/18 06:14:24;;;;;;;14.85;8.93;;;;;;;;;;5020672;28;20100;-80
2024/02/18 06:16:51;;;;;;;16.33;10.15;;;;;;;;;;5020926;28;20056;-80
2024/02/18 06:19:19;;;;;;;12.63;9.40;;;;;;;;;;5036336;28;20558;-79
2024/02/18 06:21:46;;;;;;;13.52;9.30;;;;;;;;;;5037265;28;20056;-80
2024/02/18 06:24:13;;;;;;;14.13;10.25;;;;;;;;;;5035809;28;20055;-80
2024/02/18 06:26:42;;;;;;;17.60;11.15;;;;;;;;;;5053663;28;20060;-80
2024/02/18 06:29:09;;;;;;;19.98;9.90;;;;;;;;;;5035832;28;20057;-79
2024/02/18 06:31:36;;;;;;;13.75;9.43;;;;;;;;;;5036322;28;20053;-80
2024/02/18 06:34:02;;;;;;;16.35;9.77;;;;;;;;;;5036251;28;20057;-80
2024/02/18 06:36:35;;;;;;;18.95;9.95;;;;;;;;;;5028488;28;20495;-80
2024/02/18 06:39:07;;;;;;;14.38;9.60;;;;;;;;;;5053070;28;20049;-80
2024/02/18 06:41:34;;;;;;;15.70;9.43;;;;;;;;;;5037235;28;20067;-80
2024/02/18 06:44:01;;;;;;;19.65;10.65;;;;;;;;;;5020304;28;20056;-80
2024/02/18 06:46:28;;;;;;;16.92;11.10;;;;;;;;;;5021181;28;20075;-80
2024/02/18 06:48:55;;;;;;;17.25;11.18;;;;;;;;;;5068204;28;20076;-80
2024/02/18 06:51:26;;;;;;;15.68;10.65;;;;;;;;;;5047260;28;20045;-80
2024/02/18 06:53:53;;;;;;;18.42;10.55;;;;;;;;;;5039972;28;20099;-80
2024/02/18 06:56:19;;;;;;;18.33;10.68;;;;;;;;;;5038953;28;20041;-80
2024/02/18 06:58:46;;;;;;;19.17;10.93;;;;;;;;;;5040515;28;20044;-80
2024/02/18 07:01:16;;;;;;;18.00;10.65;;;;;;;;;;5021752;28;20045;-80
2024/02/18 07:03:43;;;;;;;16.23;9.88;;;;;;;;;;5021325;28;20055;-80
2024/02/18 07:06:09;;;;;;;18.10;11.05;;;;;;;;;;5036428;28;20426;-80
2024/02/18 07:08:36;;;;;;;15.63;11.93;;;;;;;;;;5036059;28;20052;-79
2024/02/18 07:11:03;;;;;;;14.43;9.73;;;;;;;;;;5019405;28;20084;-81
2024/02/18 07:13:30;;;;;;;19.10;10.77;;;;;;;;;;5038517;28;20426;-81
2024/02/18 07:15:56;;;;;;;18.27;11.13;;;;;;;;;;5042733;28;20044;-79
2024/02/18 07:18:23;;;;;;;16.60;10.43;;;;;;;;;;5039598;28;20060;-79
2024/02/18 07:20:50;;;;;;;16.70;10.80;;;;;;;;;;5057336;28;20083;-81
2024/02/18 07:23:17;;;;;;;15.27;10.43;;;;;;;;;;5039327;28;20045;-78
2024/02/18 07:25:45;;;;;;;14.35;10.20;;;;;;;;;;5041781;28;20106;-80
2024/02/18 07:28:11;;;;;;;18.05;11.00;;;;;;;;;;5038744;28;20057;-79
2024/02/18 07:30:38;;;;;;;14.68;9.18;;;;;;;;;;5016147;28;20089;-78
2024/02/18 07:33:05;;;;;;;15.57;9.88;;;;;;;;;;5032099;28;20053;-78
2024/02/18 07:35:32;;;;;;;14.48;9.75;;;;;;;;;;5051298;28;20083;-77
2024/02/18 07:37:58;;;;;;;12.07;9.32;;;;;;;;;;5037205;28;20652;-77
2024/02/18 07:40:25;;;;;;;18.55;10.55;;;;;;;;;;5037715;28;20060;-78
2024/02/18 07:42:52;;;;;;;14.43;10.02;;;;;;;;;;5056472;28;20045;-78
2024/02/18 07:45:18;;;;;;;13.75;9.60;;;;;;;;;;5037803;28;20551;-77
2024/02/18 07:47:45;;;;;;;13.82;9.70;;;;;;;;;;5038652;28;20048;-78
2024/02/18 07:50:12;;;;;;;13.73;10.45;;;;;;;;;;5056197;28;20055;-77
2024/02/18 07:52:39;;;;;;;13.48;10.45;;;;;;;;;;5056794;28;20045;-77
2024/02/18 07:55:05;;;;;;;14.10;10.55;;;;;;;;;;5038083;28;20642;-78
2024/02/18 07:57:32;;;;;;;13.88;9.93;;;;;;;;;;5037492;28;20079;-78
2024/02/18 07:59:59;;;;;;;11.55;9.40;;;;;;;;;;5037950;28;20057;-78
2024/02/18 08:02:26;;;;;;;12.48;9.52;;;;;;;;;;5054867;28;20110;-78
2024/02/18 08:04:53;;;;;;;13.38;9.57;;;;;;;;;;5037103;28;20049;-78
2024/02/18 08:07:23;;;;;;;11.52;8.18;;;;;;;;;;5037651;28;20056;-77
2024/02/18 08:09:50;;;;;;;11.82;9.18;;;;;;;;;;5024120;28;20052;-81
2024/02/18 08:12:17;;;;;;;14.55;7.95;;;;;;;;;;5036119;28;20083;-81
2024/02/18 08:14:44;;;;;;;10.82;8.85;;;;;;;;;;5027933;28;20060;-86
2024/02/18 08:17:11;;;;;;;12.73;8.38;;;;;;;;;;5054123;28;20049;-86
2024/02/18 08:19:37;;;;;;;12.60;8.05;;;;;;;;;;5023141;28;20081;-85
2024/02/18 08:22:04;;;;;;;12.05;8.50;;;;;;;;;;5036248;28;20471;-86
2024/02/18 08:24:31;;;;;;;11.13;8.57;;;;;;;;;;5038990;28;20045;-85
2024/02/18 08:26:58;;;;;;;13.25;8.48;;;;;;;;;;5054041;28;20140;-82
2024/02/18 08:29:25;;;;;;;11.38;8.93;;;;;;;;;;5039400;28;20128;-83
2024/02/18 08:31:53;;;;;;;11.85;8.20;;;;;;;;;;5039257;28;20180;-79
2024/02/18 08:34:20;;;;;;;9.65;7.68;;;;;;;;;;5028798;28;20041;-79
2024/02/18 08:36:47;;;;;;;12.93;8.75;;;;;;;;;;5037774;28;20045;-80
2024/02/18 08:39:14;;;;;;;13.23;9.30;;;;;;;;;;5040033;28;20041;-80
2024/02/18 08:41:41;;;;;;;14.20;9.30;;;;;;;;;;5041283;28;20515;-82
2024/02/18 08:44:07;;;;;;;11.25;8.77;;;;;;;;;;5050753;28;20103;-79
2024/02/18 08:46:36;;;;;;;12.90;9.20;;;;;;;;;;5024835;28;20053;-79
2024/02/18 08:49:04;;;;;;;10.85;9.05;;;;;;;;;;5055744;28;20081;-79
2024/02/18 08:51:31;;;;;;;9.90;8.20;;;;;;;;;;5039518;28;20159;-80
2024/02/18 08:53:57;;;;;;;12.63;8.65;;;;;;;;;;5042783;28;20045;-79
2024/02/18 08:56:25;;;;;;;13.63;9.18;;;;;;;;;;5039564;28;20048;-79
2024/02/18 08:58:52;;;;;;;14.65;10.20;;;;;;;;;;5055113;28;20102;-80
2024/02/18 09:01:19;;;;;;;30.63;18.77;;;;;;;;;;5036947;28;20474;-80
2024/02/18 09:03:46;;;;;;;30.50;19.95;;;;;;;;;;5039226;28;20079;-79
2024/02/18 09:06:13;;;;;;;12.77;9.52;;;;;;;;;;5054847;28;20568;-79
2024/02/18 09:08:42;;;;;;;11.30;8.27;;;;;;;;;;5036909;28;20061;-79
2024/02/18 09:11:08;;;;;;;10.20;7.68;;;;;;;;;;5034708;28;20055;-79
2024/02/18 09:13:35;;;;;;;10.30;8.27;;;;;;;;;;5034145;28;20068;-79
2024/02/18 09:16:02;;;;;;;10.50;8.45;;;;;;;;;;5037773;28;20497;-80
2024/02/18 09:18:31;;;;;;;10.93;8.20;;;;;;;;;;5036116;28;20492;-79
2024/02/18 09:20:58;;;;;;;9.63;7.15;;;;;;;;;;5034947;28;20049;-79
2024/02/18 09:23:25;;;;;;;9.93;8.45;;;;;;;;;;5019739;28;20045;-79
2024/02/18 09:25:51;;;;;;;8.13;7.03;;;;;;;;;;5035883;28;20117;-79
2024/02/18 09:28:18;;;;;;;10.07;7.40;;;;;;;;;;5053176;28;20052;-80
2024/02/18 09:30:45;;;;;;;10.55;8.02;;;;;;;;;;5034203;28;20392;-80
2024/02/18 09:33:12;;;;;;;10.48;7.57;;;;;;;;;;5013404;28;20052;-79
2024/02/18 09:35:39;;;;;;;11.25;8.25;;;;;;;;;;5015595;28;20045;-81
2024/02/18 09:38:09;;;;;;;10.55;8.00;;;;;;;;;;5035988;28;20075;-79
2024/02/18 09:40:36;;;;;;;13.68;7.93;;;;;;;;;;5019749;28;20142;-79
2024/02/18 09:43:03;;;;;;;8.50;7.00;;;;;;;;;;5033278;28;20048;-79
2024/02/18 09:45:32;;;;;;;9.18;7.55;;;;;;;;;;5048933;28;20132;-79
2024/02/18 09:48:00;;;;;;;9.55;7.20;;;;;;;;;;5018421;28;20111;-79
2024/02/18 09:50:30;;;;;;;9.88;7.50;;;;;;;;;;5035623;28;20064;-79
2024/02/18 09:52:56;;;;;;;9.93;8.00;;;;;;;;;;5017911;28;20053;-79
2024/02/18 09:55:23;;;;;;;11.90;8.15;;;;;;;;;;5017348;28;20052;-79
2024/02/18 09:57:51;;;;;;;8.98;7.50;;;;;;;;;;5032456;28;20045;-79
2024/02/18 10:00:19;;;;;;;9.43;7.93;;;;;;;;;;5052017;28;20064;-80
2024/02/18 10:02:46;;;;;;;10.40;8.02;;;;;;;;;;5035981;28;20045;-80
2024/02/18 10:05:12;;;;;;;9.95;7.85;;;;;;;;;;5048210;28;20053;-79
2024/02/18 10:07:39;;;;;;;9.00;6.78;;;;;;;;;;5033396;28;20052;-80
2024/02/18 10:10:07;;;;;;;9.63;6.53;;;;;;;;;;5035978;28;20056;-79
2024/02/18 10:12:34;;;;;;;7.90;6.38;;;;;;;;;;5014051;28;20075;-79
2024/02/18 10:15:10;;;;;;;7.72;6.80;;;;;;;;;;5017965;28;20073;-79
2024/02/18 10:17:40;;;;;;;8.40;6.15;;;;;;;;;;5035176;28;20052;-79
2024/02/18 10:20:09;;;;;;;9.88;7.43;;;;;;;;;;5032547;28;20049;-79
2024/02/18 10:22:38;;;;;;;9.65;6.55;;;;;;;;;;5018545;28;20065;-79
2024/02/18 10:25:07;;;;;;;10.05;6.38;;;;;;;;;;5036394;28;20041;-79
2024/02/18 10:27:45;;;;;;;6.93;5.13;;;;;;;;;;5030803;28;20099;-79
2024/02/18 10:30:12;;;;;;;7.55;5.63;;;;;;;;;;5030530;28;20040;-80
2024/02/18 10:32:39;;;;;;;6.10;5.10;;;;;;;;;;5030849;28;20113;-79
2024/02/18 10:35:06;;;;;;;5.22;4.70;;;;;;;;;;5033912;28;20052;-79
2024/02/18 10:37:37;;;;;;;6.28;4.97;;;;;;;;;;5013472;28;20127;-79
2024/02/18 10:40:21;;;;;;;7.18;4.45;;;;;;;;;;5040763;28;20079;-79
2024/02/18 10:42:51;;;;;;;7.57;5.05;;;;;;;;;;5025916;28;20037;-80
2024/02/18 10:45:18;;;;;;;6.32;4.63;;;;;;;;;;5032585;28;20029;-80
2024/02/18 10:47:47;;;;;;;5.32;3.95;;;;;;;;;;5014373;28;20461;-79
2024/02/18 10:50:17;;;;;;;6.72;4.55;;;;;;;;;;5033250;28;20049;-79
2024/02/18 10:52:46;;;;;;;4.30;3.88;;;;;;;;;;5018164;28;20052;-79
2024/02/18 10:55:19;;;;;;;4.30;3.90;;;;;;;;;;5013782;28;20077;-79
2024/02/18 10:57:48;;;;;;;4.22;3.58;;;;;;;;;;5031709;28;20064;-78
2024/02/18 11:00:18;;;;;;;6.65;3.83;;;;;;;;;;5011306;28;20053;-78
2024/02/18 11:02:49;;;;;;;4.90;4.20;;;;;;;;;;5012871;28;20055;-78
2024/02/18 11:05:16;;;;;;;4.00;3.60;;;;;;;;;;5017207;28;20052;-78
2024/02/18 11:07:43;;;;;;;5.03;3.90;;;;;;;;;;5011534;28;20049;-78
2024/02/18 11:10:10;;;;;;;5.40;4.10;;;;;;;;;;5030273;28;20058;-78
2024/02/18 11:12:37;;;;;;;6.35;4.47;;;;;;;;;;5019256;28;20649;-78
2024/02/18 11:15:06;;;;;;;4.35;3.90;;;;;;;;;;5019913;28;20056;-78
2024/02/18 11:17:33;;;;;;;4.70;3.88;;;;;;;;;;5038825;28;20052;-78
2024/02/18 11:20:00;;;;;;;5.88;3.97;;;;;;;;;;5018020;28;20046;-77
2024/02/18 11:22:27;;;;;;;5.43;4.50;;;;;;;;;;5024248;28;20045;-80
2024/02/18 11:24:54;;;;;;;6.60;4.10;;;;;;;;;;5024759;28;20048;-80
2024/02/18 11:27:23;;;;;;;5.95;4.10;;;;;;;;;;5034841;28;20127;-80
2024/02/18 11:29:50;;;;;;;3.72;3.25;;;;;;;;;;5024886;28;20049;-81
2024/02/18 11:32:17;;;;;;;6.20;4.10;;;;;;;;;;5033546;28;20049;-79
2024/02/18 11:34:44;;;;;;;5.57;4.38;;;;;;;;;;5023291;28;20072;-79
2024/02/18 11:37:31;;;;;;;4.82;3.53;;;;;;;;;;5022953;28;20140;-79
2024/02/18 11:40:02;;;;;;;5.47;4.05;;;;;;;;;;5024425;28;20561;-79
2024/02/18 11:42:29;;;;;;;4.70;4.00;;;;;;;;;;5057661;28;20041;-79
2024/02/18 11:45:11;;;;;;;6.90;5.07;;;;;;;;;;5040407;28;20410;-79
2024/02/18 11:47:47;;;;;;;7.40;5.40;;;;;;;;;;5042786;28;20057;-79
2024/02/18 11:50:14;;;;;;;4.57;3.97;;;;;;;;;;5043133;28;20136;-80
2024/02/18 11:52:44;;;;;;;6.15;4.78;;;;;;;;;;5023565;28;20056;-78
2024/02/18 11:55:12;;;;;;;5.57;4.10;;;;;;;;;;5064274;28;20049;-79
2024/02/18 11:57:39;;;;;;;5.07;4.35;;;;;;;;;;5045625;28;20086;-79
2024/02/18 12:00:09;;;;;;;5.18;4.03;;;;;;;;;;5046192;28;20049;-79
2024/02/18 12:02:36;;;;;;;4.63;3.95;;;;;;;;;;5030823;28;20052;-79
2024/02/18 12:05:04;;;;;;;7.78;4.22;;;;;;;;;;5023973;28;20751;-81
2024/02/18 12:07:33;;;;;;;5.20;3.70;;;;;;;;;;5026009;28;20270;-80
2024/02/18 12:10:00;;;;;;;6.50;3.85;;;;;;;;;;5029443;28;20102;-79
2024/02/18 12:12:27;;;;;;;5.30;3.95;;;;;;;;;;5026595;28;20049;-79
2024/02/18 12:14:55;;;;;;;5.18;4.10;;;;;;;;;;5022883;28;20076;-79
2024/02/18 12:17:25;;;;;;;4.93;4.13;;;;;;;;;;5025895;28;20079;-79
2024/02/18 12:19:52;;;;;;;4.13;3.50;;;;;;;;;;5039399;28;20102;-79
2024/02/18 12:22:23;;;;;;;4.53;3.10;;;;;;;;;;5038003;28;20136;-79
2024/02/18 12:24:50;;;;;;;4.57;3.88;;;;;;;;;;5056342;28;20045;-79
2024/02/18 12:27:18;;;;;;;4.78;4.03;;;;;;;;;;5043904;28;20033;-79
2024/02/18 12:29:48;;;;;;;3.78;3.10;;;;;;;;;;5059603;28;20623;-79
2024/02/18 12:32:17;;;;;;;3.70;2.92;;;;;;;;;;5042858;28;20423;-79
2024/02/18 12:34:47;;;;;;;4.07;3.60;;;;;;;;;;5054908;28;20053;-78
2024/02/18 12:37:14;;;;;;;6.25;5.05;;;;;;;;;;5030991;28;20045;-79
2024/02/18 12:40:00;;;;;;;8.13;5.18;;;;;;;;;;5047800;28;20052;-79
2024/02/18 12:42:27;;;;;;;6.93;5.35;;;;;;;;;;5042438;28;20063;-79
2024/02/18 12:44:54;;;;;;;6.57;5.45;;;;;;;;;;5045803;28;20107;-79
2024/02/18 12:47:41;;;;;;;5.93;4.90;;;;;;;;;;5039781;28;20103;-79
2024/02/18 12:50:08;;;;;;;6.43;5.00;;;;;;;;;;5037020;28;20113;-79
2024/02/18 12:52:38;;;;;;;6.95;5.53;;;;;;;;;;5035910;28;20059;-79
2024/02/18 12:55:06;;;;;;;10.00;6.13;;;;;;;;;;5034683;28;20532;-78
2024/02/18 12:57:34;;;;;;;8.70;6.25;;;;;;;;;;5014899;28;20150;-79
2024/02/18 13:00:01;;;;;;;7.30;5.95;;;;;;;;;;5013782;28;20044;-78
2024/02/18 13:02:28;;;;;;;8.20;6.18;;;;;;;;;;5019298;28;20036;-79
2024/02/18 13:04:55;;;;;;;9.75;5.88;;;;;;;;;;5034743;28;20449;-77
2024/02/18 13:07:23;;;;;;;7.47;5.95;;;;;;;;;;5029903;28;20041;-79
2024/02/18 13:09:50;;;;;;;8.25;6.18;;;;;;;;;;5059800;28;20100;-82
2024/02/18 13:12:17;;;;;;;9.75;5.65;;;;;;;;;;5011371;28;20427;-81
2024/02/18 13:14:44;;;;;;;9.55;6.15;;;;;;;;;;5035473;28;20052;-81
2024/02/18 13:17:10;;;;;;;8.65;5.80;;;;;;;;;;5035806;28;20052;-80
2024/02/18 13:19:43;;;;;;;8.27;6.35;;;;;;;;;;5036002;28;20072;-81
2024/02/18 13:22:14;;;;;;;7.50;5.93;;;;;;;;;;5036081;28;20067;-82
2024/02/18 13:24:41;;;;;;;6.55;5.15;;;;;;;;;;5011974;28;20404;-82
2024/02/18 13:27:08;;;;;;;6.00;5.38;;;;;;;;;;5026821;28;20049;-82
2024/02/18 13:29:34;;;;;;;8.90;5.72;;;;;;;;;;5062493;28;20053;-81
2024/02/18 13:32:01;;;;;;;5.97;4.75;;;;;;;;;;5025652;28;20045;-81
2024/02/18 13:34:28;;;;;;;6.50;5.30;;;;;;;;;;5014967;28;20461;-81
2024/02/18 13:36:57;;;;;;;7.45;5.43;;;;;;;;;;5020461;28;20102;-82
2024/02/18 13:39:24;;;;;;;6.40;5.22;;;;;;;;;;5035390;28;20107;-82
2024/02/18 13:41:51;;;;;;;6.60;5.32;;;;;;;;;;5036226;28;20049;-82
2024/02/18 13:44:18;;;;;;;6.43;5.53;;;;;;;;;;5035869;28;20403;-81
2024/02/18 13:46:45;;;;;;;7.38;5.28;;;;;;;;;;5053890;28;20552;-82
2024/02/18 13:49:11;;;;;;;5.90;4.63;;;;;;;;;;5036251;28;20075;-77
2024/02/18 13:51:38;;;;;;;7.47;5.18;;;;;;;;;;5031720;28;20777;-81
2024/02/18 13:54:07;;;;;;;5.28;4.10;;;;;;;;;;5034728;28;20049;-81
2024/02/18 13:56:33;;;;;;;5.90;4.90;;;;;;;;;;5019463;28;20045;-81
2024/02/18 13:59:01;;;;;;;7.07;4.40;;;;;;;;;;5035517;28;20053;-81
2024/02/18 14:01:28;;;;;;;4.88;3.80;;;;;;;;;;5038448;28;20045;-82
2024/02/18 14:03:55;;;;;;;4.68;4.03;;;;;;;;;;5037091;28;20041;-82
2024/02/18 14:06:22;;;;;;;4.95;3.83;;;;;;;;;;5053046;28;20100;-81
2024/02/18 14:08:49;;;;;;;4.50;3.78;;;;;;;;;;5036775;28;20048;-80
2024/02/18 14:11:19;;;;;;;4.72;4.18;;;;;;;;;;5035133;28;20095;-81
2024/02/18 14:13:47;;;;;;;5.93;5.10;;;;;;;;;;5037947;28;20049;-81
2024/02/18 14:16:13;;;;;;;5.10;4.38;;;;;;;;;;5038401;28;20083;-81
2024/02/18 14:18:40;;;;;;;8.43;6.00;;;;;;;;;;5037478;28;20071;-81
2024/02/18 14:21:07;;;;;;;7.85;6.03;;;;;;;;;;5036342;28;20199;-81
2024/02/18 14:23:34;;;;;;;9.18;6.32;;;;;;;;;;5020215;28;20057;-81
2024/02/18 14:26:01;;;;;;;10.07;6.55;;;;;;;;;;5019095;28;20048;-81
2024/02/18 14:28:30;;;;;;;9.77;7.15;;;;;;;;;;5038454;28;20076;-80
2024/02/18 14:30:57;;;;;;;8.38;6.32;;;;;;;;;;5037405;28;20102;-81
2024/02/18 14:33:23;;;;;;;10.25;6.60;;;;;;;;;;5055635;28;20509;-81